Airfield :
LOGIN :

Register | Disclaimer

   EN    FR    IT 

 










Legend :    VFR   Marginal VFR   IFR   Intensive IFR   Very Intensive IFR
Visi :
Ceiling :
>= 8 km
>= 3000ft
5 to 8 km
1000 to 3000 ft
1500m to 5 km
500 to 1000 ft
800 to 1500m
200 to 500 ft
< 800m
< 200 ft
Symbols :   Thunderstorms  Fog  Heavy snow  Heavy precipitations  Wind > 20 kt
SIGMETs :     Misc.  Thunderstorms  Icing  Turbulence  Mountain Waves  Volcanic Ashes







- Airport Elevation : 327 ft
- IATA code : BHX
- Download approach charts


EGBB - Birmingham

CURRENT METAR :
  • 231420Z 29007KT 240V330 9999 SCT034 21/11 Q1021

EXPIRED METARs :
  • 231350Z 29005KT 250V320 9999 BKN035 20/12 Q1021
  • 231320Z 27006KT 230V300 9999 BKN030 20/11 Q1021
  • 231250Z 24006KT 190V320 9999 BKN025 18/12 Q1021
  • 231220Z 23007KT 190V270 9999 BKN027 BKN032 19/14 Q1021
  • 231150Z 26006KT 200V290 9999 VCSH BKN017 18/13 Q1021

TAF TAF EGBB
Valid from the 23 at 12:00 until the 24 at 12:00 UTC


231057Z 2312/2412 27006KT 9999 SCT035
ATIS : +44 121 780 0910
No reported NOTAMs for that airfield.



MET'MAP, your aeronautical weather chart ! - Copyright ORBIFLY December 2007 - Disclaimer

ORBIFLY MET'MAP TEAM :

Programming & Development : Alexandra Zaïnal
Concept & Development : Baudouin d'Aumeries
Co-Development & Prog : Marc-Olivier Méhu
Technical & hardware support : Manuel Goepfert

Contact : metmap@orbifly.com




SOURCES & CREDITS :

   NOAA